createdAt,value
2023-12-21T00:01:23.613Z,98956.41
2023-12-21T00:03:50.073Z,98953.75
2023-12-21T00:06:16.757Z,98937.22
2023-12-21T00:08:43.318Z,98933.78
2023-12-21T00:11:09.814Z,98937.94
2023-12-21T00:13:36.381Z,98946.50
2023-12-21T00:16:02.817Z,98960.34
2023-12-21T00:18:29.856Z,98964.59
2023-12-21T00:20:56.322Z,98962.16
2023-12-21T00:23:22.773Z,98959.63
2023-12-21T00:25:49.192Z,98957.81
2023-12-21T00:28:15.868Z,98962.00
2023-12-21T00:30:42.322Z,98946.56
2023-12-21T00:33:09.240Z,98941.41
2023-12-21T00:35:35.687Z,98938.06
2023-12-21T00:38:02.051Z,98938.13
2023-12-21T00:40:28.510Z,98943.16
2023-12-21T00:42:55.002Z,98936.31
2023-12-21T00:45:21.429Z,98930.31
2023-12-21T00:47:48.216Z,98924.28
2023-12-21T00:50:14.823Z,98921.75
2023-12-21T00:52:41.265Z,98920.81
2023-12-21T00:55:08.042Z,98917.34
2023-12-21T00:57:34.499Z,98919.06
2023-12-21T01:00:00.906Z,98915.56
2023-12-21T01:02:27.289Z,98905.16
2023-12-21T01:04:53.690Z,98909.38
2023-12-21T01:07:20.132Z,98914.56
2023-12-21T01:09:46.639Z,98915.50
2023-12-21T01:12:13.099Z,98900.88
2023-12-21T01:14:39.565Z,98910.47
2023-12-21T01:17:06.038Z,98911.44
2023-12-21T01:19:32.735Z,98912.28
2023-12-21T01:21:59.169Z,98907.06
2023-12-21T01:24:25.553Z,98912.13
2023-12-21T01:26:52.094Z,98904.28
2023-12-21T01:29:18.495Z,98905.88
2023-12-21T01:31:44.898Z,98894.59
2023-12-21T01:34:11.472Z,98883.44
2023-12-21T01:36:37.897Z,98881.59
2023-12-21T01:39:04.517Z,98879.94
2023-12-21T01:41:31.014Z,98871.19
2023-12-21T01:43:57.396Z,98866.81
2023-12-21T01:46:24.930Z,98864.25
2023-12-21T01:48:51.933Z,98868.50
2023-12-21T01:51:18.665Z,98863.38
2023-12-21T01:53:45.038Z,98853.56
2023-12-21T01:56:11.432Z,98862.38
2023-12-21T01:58:38.205Z,98848.53
2023-12-21T02:01:04.914Z,98840.72
2023-12-21T02:03:31.445Z,98833.81
2023-12-21T02:05:57.883Z,98833.81
2023-12-21T02:08:24.289Z,98830.22
2023-12-21T02:10:50.873Z,98822.28
2023-12-21T02:13:17.370Z,98819.75
2023-12-21T02:15:43.777Z,98817.16
2023-12-21T02:18:10.289Z,98814.66
2023-12-21T02:20:36.769Z,98808.69
2023-12-21T02:23:04.826Z,98814.66
2023-12-21T02:25:32.116Z,98806.91
2023-12-21T02:27:58.611Z,98807.69
2023-12-21T02:30:25.043Z,98808.34
2023-12-21T02:32:51.679Z,98804.88
2023-12-21T02:35:18.218Z,98807.50
2023-12-21T02:37:44.625Z,98801.28
2023-12-21T02:40:11.547Z,98790.88
2023-12-21T02:42:38.139Z,98787.38
2023-12-21T02:45:04.708Z,98789.91
2023-12-21T02:47:31.175Z,98772.69
2023-12-21T02:49:57.586Z,98776.06
2023-12-21T02:52:24.074Z,98764.72
2023-12-21T02:54:50.504Z,98758.72
2023-12-21T02:57:16.875Z,98759.59
2023-12-21T02:59:43.660Z,98749.66
2023-12-21T03:02:10.166Z,98748.56
2023-12-21T03:04:36.698Z,98752.69
2023-12-21T03:07:04.091Z,98746.63
2023-12-21T03:09:30.716Z,98744.03
2023-12-21T03:11:57.100Z,98733.91
2023-12-21T03:14:23.628Z,98736.88
2023-12-21T03:16:50.462Z,98733.31
2023-12-21T03:19:16.964Z,98725.63
2023-12-21T03:21:43.389Z,98714.34
2023-12-21T03:24:10.309Z,98716.78
2023-12-21T03:26:36.819Z,98711.56
2023-12-21T03:29:03.241Z,98698.53
2023-12-21T03:31:29.771Z,98697.56
2023-12-21T03:33:56.250Z,98685.50
2023-12-21T03:36:22.890Z,98684.44
2023-12-21T03:38:49.324Z,98679.16
2023-12-21T03:41:15.726Z,98670.69
2023-12-21T03:43:42.114Z,98665.31
2023-12-21T03:46:09.060Z,98663.53
2023-12-21T03:48:35.503Z,98650.69
2023-12-21T03:51:02.005Z,98650.66
2023-12-21T03:53:28.413Z,98655.09
2023-12-21T03:55:54.793Z,98647.50
2023-12-21T03:58:21.172Z,98644.84
2023-12-21T04:00:47.613Z,98649.91
2023-12-21T04:03:14.044Z,98648.06
2023-12-21T04:05:42.539Z,98648.69
2023-12-21T04:08:09.229Z,98648.72
2023-12-21T04:10:36.209Z,98641.75
2023-12-21T04:13:02.664Z,98651.09
2023-12-21T04:15:29.089Z,98638.00
2023-12-21T04:17:55.592Z,98632.75
2023-12-21T04:20:22.037Z,98633.75
2023-12-21T04:22:48.700Z,98627.47
2023-12-21T04:25:15.337Z,98621.63
2023-12-21T04:27:41.797Z,98617.22
2023-12-21T04:30:08.639Z,98602.56
2023-12-21T04:32:35.151Z,98605.94
2023-12-21T04:35:01.627Z,98600.66
2023-12-21T04:37:28.242Z,98597.25
2023-12-21T04:39:54.651Z,98587.56
2023-12-21T04:42:21.027Z,98585.00
2023-12-21T04:44:47.563Z,98580.84
2023-12-21T04:47:22.770Z,98577.38
2023-12-21T04:49:50.770Z,98579.97
2023-12-21T04:52:17.190Z,98582.50
2023-12-21T04:54:43.571Z,98578.16
2023-12-21T04:57:10.100Z,98570.50
2023-12-21T04:59:39.444Z,98563.41
2023-12-21T05:02:05.870Z,98568.56
2023-12-21T05:04:32.453Z,98569.44
2023-12-21T05:06:58.988Z,98572.75
2023-12-21T05:09:25.482Z,98562.41
2023-12-21T05:11:51.987Z,98550.31
2023-12-21T05:14:18.366Z,98546.91
2023-12-21T05:16:44.860Z,98544.22
2023-12-21T05:19:11.312Z,98546.72
2023-12-21T05:21:37.763Z,98527.84
2023-12-21T05:24:04.317Z,98522.63
2023-12-21T05:26:30.709Z,98522.47
2023-12-21T05:28:58.803Z,98519.03
2023-12-21T05:31:25.325Z,98503.44
2023-12-21T05:33:52.238Z,98499.69
2023-12-21T05:36:22.019Z,98492.81
2023-12-21T05:38:48.519Z,98496.19
2023-12-21T05:41:14.970Z,98497.75
2023-12-21T05:43:41.622Z,98496.69
2023-12-21T05:46:08.092Z,98494.84
2023-12-21T05:48:34.536Z,98477.53
2023-12-21T05:51:01.056Z,98483.63
2023-12-21T05:53:31.250Z,98474.03
2023-12-21T05:55:57.885Z,98474.53
2023-12-21T05:58:24.364Z,98464.31
2023-12-21T06:00:50.857Z,98463.25
2023-12-21T06:03:17.329Z,98455.34
2023-12-21T06:05:43.738Z,98444.91
2023-12-21T06:08:10.316Z,98430.09
2023-12-21T06:10:36.801Z,98430.06
2023-12-21T06:13:03.270Z,98416.38
2023-12-21T06:15:29.732Z,98419.63
2023-12-21T06:17:56.169Z,98409.19
2023-12-21T06:20:22.765Z,98411.78
2023-12-21T06:22:49.516Z,98411.81
2023-12-21T06:25:16.162Z,98409.19
2023-12-21T06:27:42.578Z,98406.59
2023-12-21T06:30:09.174Z,98403.19
2023-12-21T06:32:35.715Z,98393.66
2023-12-21T06:35:02.290Z,98390.22
2023-12-21T06:37:28.936Z,98382.56
2023-12-21T06:39:55.900Z,98375.78
2023-12-21T06:42:22.608Z,98377.31
2023-12-21T06:44:50.027Z,98358.25
2023-12-21T06:47:17.616Z,98362.84
2023-12-21T06:49:44.126Z,98355.06
2023-12-21T06:52:10.663Z,98355.72
2023-12-21T06:54:37.281Z,98348.78
2023-12-21T06:57:03.799Z,98341.03
2023-12-21T06:59:31.359Z,98334.16
2023-12-21T07:01:57.985Z,98335.72
2023-12-21T07:04:24.614Z,98323.66
2023-12-21T07:06:52.106Z,98330.31
2023-12-21T07:09:18.872Z,98327.03
2023-12-21T07:11:46.735Z,98332.97
2023-12-21T07:14:13.778Z,98328.56
2023-12-21T07:16:40.305Z,98311.25
2023-12-21T07:19:07.451Z,98310.28
2023-12-21T07:21:34.082Z,98299.97
2023-12-21T07:24:00.490Z,98305.94
2023-12-21T07:26:27.836Z,98302.50
2023-12-21T07:28:54.260Z,98295.47
2023-12-21T07:31:20.908Z,98302.56
2023-12-21T07:33:48.122Z,98281.09
2023-12-21T07:36:17.536Z,98281.59
2023-12-21T07:38:43.928Z,98275.50
2023-12-21T07:41:11.504Z,98261.09
2023-12-21T07:43:40.102Z,98258.44
2023-12-21T07:46:09.398Z,98244.47
2023-12-21T07:48:36.206Z,98243.66
2023-12-21T07:51:02.724Z,98227.31
2023-12-21T07:53:29.391Z,98237.91
2023-12-21T07:55:55.897Z,98224.66
2023-12-21T07:58:22.402Z,98216.22
2023-12-21T08:00:49.006Z,98215.47
2023-12-21T08:03:15.497Z,98207.47
2023-12-21T08:05:41.933Z,98197.16
2023-12-21T08:08:08.405Z,98208.38
2023-12-21T08:10:34.984Z,98192.50
2023-12-21T08:13:01.627Z,98184.03
2023-12-21T08:15:28.171Z,98187.25
2023-12-21T08:17:57.202Z,98182.06
2023-12-21T08:20:24.209Z,98165.88
2023-12-21T08:22:50.854Z,98173.59
2023-12-21T08:25:17.606Z,98172.75
2023-12-21T08:27:44.135Z,98164.97
2023-12-21T08:30:11.352Z,98147.78
2023-12-21T08:32:37.938Z,98146.63
2023-12-21T08:35:05.912Z,98142.47
2023-12-21T08:37:32.516Z,98142.94
2023-12-21T08:39:59.733Z,98129.75
2023-12-21T08:42:28.153Z,98122.81
2023-12-21T08:44:54.693Z,98118.38
2023-12-21T08:47:21.143Z,98120.84
2023-12-21T08:49:49.031Z,98111.50
2023-12-21T08:52:15.699Z,98100.94
2023-12-21T08:54:42.382Z,98103.53
2023-12-21T08:57:08.772Z,98088.09
2023-12-21T08:59:35.986Z,98095.50
2023-12-21T09:02:02.563Z,98081.81
2023-12-21T09:04:29.011Z,98074.75
2023-12-21T09:06:55.417Z,98062.91
2023-12-21T09:09:21.802Z,98061.06
2023-12-21T09:11:48.241Z,98039.88
2023-12-21T09:14:14.662Z,98042.16
2023-12-21T09:16:41.456Z,98027.78
2023-12-21T09:19:08.242Z,98010.59
2023-12-21T09:21:36.714Z,98003.47
2023-12-21T09:24:03.175Z,98000.47
2023-12-21T09:26:29.655Z,97977.03
2023-12-21T09:28:56.224Z,97979.63
2023-12-21T09:31:23.038Z,97971.84
2023-12-21T09:33:49.504Z,97946.22
2023-12-21T09:36:16.293Z,97947.66
2023-12-21T09:38:42.696Z,97934.00
2023-12-21T09:41:09.082Z,97939.09
2023-12-21T09:43:35.540Z,97926.66
2023-12-21T09:46:02.828Z,97908.72
2023-12-21T09:48:29.392Z,97908.66
2023-12-21T09:50:56.112Z,97898.16
2023-12-21T09:53:25.679Z,97882.84
2023-12-21T09:55:52.235Z,97876.22
2023-12-21T09:58:19.513Z,97866.69
2023-12-21T10:00:46.480Z,97855.16
2023-12-21T10:03:12.933Z,97842.25
2023-12-21T10:05:41.385Z,97842.56
2023-12-21T10:08:08.900Z,97830.03
2023-12-21T10:10:35.325Z,97825.63
2023-12-21T10:13:02.011Z,97808.50
2023-12-21T10:15:29.175Z,97813.47
2023-12-21T10:17:55.608Z,97815.56
2023-12-21T10:20:24.470Z,97817.31
2023-12-21T10:22:51.242Z,97796.66
2023-12-21T10:25:18.947Z,97786.94
2023-12-21T10:27:55.355Z,97776.25
2023-12-21T10:30:24.131Z,97766.59
2023-12-21T10:32:57.180Z,97758.41
2023-12-21T10:35:24.764Z,97738.13
2023-12-21T10:37:51.322Z,97734.03
2023-12-21T10:40:18.303Z,97719.97
2023-12-21T10:42:48.620Z,97708.66
2023-12-21T10:45:25.657Z,97693.44
2023-12-21T10:48:02.158Z,97673.31
2023-12-21T10:50:29.839Z,97663.50
2023-12-21T10:52:56.515Z,97652.03
2023-12-21T10:55:23.028Z,97655.06
2023-12-21T10:57:49.574Z,97637.38
2023-12-21T11:00:18.938Z,97625.25
2023-12-21T11:02:50.154Z,97613.88
2023-12-21T11:05:29.008Z,97598.66
2023-12-21T11:07:56.205Z,97587.72
2023-12-21T11:10:23.320Z,97586.13
2023-12-21T11:12:50.071Z,97567.22
2023-12-21T11:15:16.965Z,97543.00
2023-12-21T11:17:44.560Z,97534.47
2023-12-21T11:20:11.355Z,97523.25
2023-12-21T11:22:39.307Z,97498.06
2023-12-21T11:25:08.900Z,97486.28
2023-12-21T11:27:38.060Z,97495.06
2023-12-21T11:30:09.544Z,97476.81
2023-12-21T11:32:36.204Z,97468.28
2023-12-21T11:35:02.680Z,97463.00
2023-12-21T11:37:29.257Z,97445.09
2023-12-21T11:40:05.505Z,97436.56
2023-12-21T11:42:35.403Z,97424.34
2023-12-21T11:45:07.731Z,97413.41
2023-12-21T11:47:34.306Z,97404.69
2023-12-21T11:50:19.655Z,97379.56
2023-12-21T11:52:48.161Z,97370.94
2023-12-21T11:55:24.226Z,97359.84
2023-12-21T11:57:50.683Z,97349.47
2023-12-21T12:00:17.727Z,97327.94
2023-12-21T12:02:48.378Z,97328.41
2023-12-21T12:05:20.970Z,97318.13
2023-12-21T12:07:47.938Z,97295.50
2023-12-21T12:10:14.344Z,97276.50
2023-12-21T12:12:43.801Z,97265.81
2023-12-21T12:15:10.295Z,97257.94
2023-12-21T12:17:45.828Z,97237.94
2023-12-21T12:20:13.248Z,97235.13
2023-12-21T12:22:39.744Z,97216.56
2023-12-21T12:25:06.425Z,97203.31
2023-12-21T12:27:32.972Z,97190.03
2023-12-21T12:29:59.342Z,97174.22
2023-12-21T12:32:26.344Z,97165.94
2023-12-21T12:34:52.844Z,97146.53
2023-12-21T12:37:19.674Z,97137.91
2023-12-21T12:39:49.307Z,97115.38
2023-12-21T12:42:16.673Z,97104.47
2023-12-21T12:44:43.123Z,97087.88
2023-12-21T12:47:10.638Z,97072.06
2023-12-21T12:49:39.740Z,97057.94
2023-12-21T12:52:06.822Z,97052.44
2023-12-21T12:54:33.473Z,97040.19
2023-12-21T12:57:03.338Z,97026.88
2023-12-21T12:59:29.963Z,97017.06
2023-12-21T13:01:56.398Z,97002.22
2023-12-21T13:04:22.972Z,96987.97
2023-12-21T13:06:50.760Z,96986.84
2023-12-21T13:09:17.274Z,96965.81
2023-12-21T13:11:43.699Z,96956.84
2023-12-21T13:14:11.991Z,96942.81
2023-12-21T13:16:38.593Z,96923.44
2023-12-21T13:19:06.378Z,96921.25
2023-12-21T13:21:33.666Z,96915.09
2023-12-21T13:24:00.851Z,96891.38
2023-12-21T13:26:29.333Z,96881.47
2023-12-21T13:28:56.227Z,96882.84
2023-12-21T13:31:23.217Z,96869.38
2023-12-21T13:33:49.696Z,96856.03
2023-12-21T13:36:16.148Z,96837.25
2023-12-21T13:38:42.755Z,96827.78
2023-12-21T13:41:10.369Z,96808.78
2023-12-21T13:43:37.320Z,96806.16
2023-12-21T13:46:04.138Z,96788.44
2023-12-21T13:48:30.672Z,96785.25
2023-12-21T13:50:57.263Z,96773.88
2023-12-21T13:53:23.647Z,96761.69
2023-12-21T13:55:50.166Z,96751.63
2023-12-21T13:58:16.697Z,96741.09
2023-12-21T14:00:43.229Z,96737.41
2023-12-21T14:03:10.182Z,96731.34
2023-12-21T14:05:36.739Z,96715.25
2023-12-21T14:08:03.456Z,96698.16
2023-12-21T14:10:30.193Z,96705.50
2023-12-21T14:12:58.802Z,96691.03
2023-12-21T14:15:25.730Z,96679.25
2023-12-21T14:17:52.263Z,96667.19
2023-12-21T14:20:23.562Z,96654.03
2023-12-21T14:22:51.127Z,96654.47
2023-12-21T14:25:17.854Z,96638.56
2023-12-21T14:27:44.330Z,96627.91
2023-12-21T14:30:11.073Z,96618.06
2023-12-21T14:32:37.512Z,96614.09
2023-12-21T14:35:04.612Z,96597.41
2023-12-21T14:37:31.183Z,96586.97
2023-12-21T14:39:57.808Z,96599.38
2023-12-21T14:42:25.118Z,96573.00
2023-12-21T14:44:54.738Z,96574.13
2023-12-21T14:47:21.283Z,96562.88
2023-12-21T14:49:48.226Z,96560.69
2023-12-21T14:52:14.889Z,96549.88
2023-12-21T14:54:41.431Z,96554.72
2023-12-21T14:57:08.130Z,96532.75
2023-12-21T14:59:34.625Z,96538.53
2023-12-21T15:02:01.079Z,96522.59
2023-12-21T15:04:28.081Z,96515.22
2023-12-21T15:06:56.184Z,96509.19
2023-12-21T15:09:22.836Z,96510.28
2023-12-21T15:11:49.233Z,96492.72
2023-12-21T15:14:15.892Z,96486.53
2023-12-21T15:16:42.386Z,96477.50
2023-12-21T15:19:11.334Z,96477.22
2023-12-21T15:21:37.912Z,96469.56
2023-12-21T15:24:04.779Z,96466.84
2023-12-21T15:26:31.495Z,96453.78
2023-12-21T15:28:58.061Z,96434.41
2023-12-21T15:31:24.574Z,96429.66
2023-12-21T15:33:51.275Z,96422.66
2023-12-21T15:36:18.007Z,96414.66
2023-12-21T15:38:44.482Z,96412.50
2023-12-21T15:41:17.779Z,96405.47
2023-12-21T15:43:44.786Z,96405.59
2023-12-21T15:46:11.321Z,96392.69
2023-12-21T15:48:37.784Z,96391.88
2023-12-21T15:51:04.622Z,96390.06
2023-12-21T15:53:31.348Z,96381.16
2023-12-21T15:55:57.838Z,96375.50
2023-12-21T15:58:24.713Z,96368.50
2023-12-21T16:00:51.662Z,96362.63
2023-12-21T16:03:18.549Z,96353.97
2023-12-21T16:05:45.200Z,96354.50
2023-12-21T16:08:12.411Z,96353.81
2023-12-21T16:10:38.806Z,96347.94
2023-12-21T16:13:05.540Z,96341.19
2023-12-21T16:15:32.282Z,96337.22
2023-12-21T16:17:59.317Z,96330.06
2023-12-21T16:20:26.046Z,96314.13
2023-12-21T16:22:52.877Z,96309.63
2023-12-21T16:25:19.326Z,96309.88
2023-12-21T16:27:45.739Z,96300.41
2023-12-21T16:30:15.490Z,96307.41
2023-12-21T16:32:42.192Z,96299.75
2023-12-21T16:35:08.889Z,96295.88
2023-12-21T16:37:35.545Z,96286.41
2023-12-21T16:40:02.127Z,96291.75
2023-12-21T16:42:28.694Z,96284.72
2023-12-21T16:44:56.314Z,96280.34
2023-12-21T16:47:22.791Z,96280.47
2023-12-21T16:49:49.342Z,96277.34
2023-12-21T16:52:16.036Z,96283.66
2023-12-21T16:54:42.845Z,96281.72
2023-12-21T16:57:09.430Z,96278.19
2023-12-21T16:59:35.884Z,96284.22
2023-12-21T17:02:02.303Z,96284.63
2023-12-21T17:04:28.881Z,96288.75
2023-12-21T17:06:56.081Z,96285.44
2023-12-21T17:09:22.638Z,96285.31
2023-12-21T17:11:49.124Z,96292.44
2023-12-21T17:14:15.547Z,96298.06
2023-12-21T17:16:46.077Z,96299.56
2023-12-21T17:19:13.264Z,96296.97
2023-12-21T17:21:39.793Z,96304.91
2023-12-21T17:24:06.265Z,96300.97
2023-12-21T17:26:33.132Z,96314.84
2023-12-21T17:28:59.624Z,96307.00
2023-12-21T17:31:26.086Z,96297.69
2023-12-21T17:33:52.654Z,96311.53
2023-12-21T17:36:19.188Z,96322.25
2023-12-21T17:38:45.631Z,96312.81
2023-12-21T17:41:12.583Z,96319.91
2023-12-21T17:43:39.125Z,96336.09
2023-12-21T17:46:05.536Z,96332.81
2023-12-21T17:48:32.068Z,96337.88
2023-12-21T17:50:58.549Z,96336.22
2023-12-21T17:53:25.044Z,96330.88
2023-12-21T17:55:51.754Z,96340.75
2023-12-21T17:58:19.806Z,96345.69
2023-12-21T18:00:46.471Z,96337.44
2023-12-21T18:03:12.923Z,96333.31
2023-12-21T18:05:39.439Z,96325.78
2023-12-21T18:08:06.170Z,96316.84
2023-12-21T18:10:32.965Z,96329.22
2023-12-21T18:12:59.581Z,96323.03
2023-12-21T18:15:25.942Z,96332.50
2023-12-21T18:17:52.483Z,96341.00
2023-12-21T18:20:22.941Z,96338.66
2023-12-21T18:22:50.334Z,96337.31
2023-12-21T18:25:18.332Z,96338.13
2023-12-21T18:27:45.314Z,96332.66
2023-12-21T18:30:11.808Z,96328.94
2023-12-21T18:32:38.298Z,96331.53
2023-12-21T18:35:05.128Z,96330.72
2023-12-21T18:37:31.645Z,96325.09
2023-12-21T18:39:58.295Z,96321.81
2023-12-21T18:42:24.749Z,96315.09
2023-12-21T18:44:51.285Z,96316.34
2023-12-21T18:47:18.421Z,96317.31
2023-12-21T18:49:45.055Z,96318.41
2023-12-21T18:52:11.569Z,96321.84
2023-12-21T18:54:38.036Z,96318.28
2023-12-21T18:57:05.742Z,96325.28
2023-12-21T18:59:32.155Z,96311.66
2023-12-21T19:01:58.774Z,96317.72
2023-12-21T19:04:25.409Z,96306.88
2023-12-21T19:06:51.844Z,96310.72
2023-12-21T19:09:18.357Z,96334.00
2023-12-21T19:11:44.833Z,96362.97
2023-12-21T19:14:11.268Z,96342.28
2023-12-21T19:16:43.269Z,96338.31
2023-12-21T19:19:09.823Z,96368.34
2023-12-21T19:21:36.222Z,96369.00
2023-12-21T19:24:02.582Z,96352.13
2023-12-21T19:26:28.983Z,96367.06
2023-12-21T19:28:55.461Z,96371.97
2023-12-21T19:31:23.965Z,96366.88
2023-12-21T19:33:50.527Z,96371.28
2023-12-21T19:36:17.917Z,96366.50
2023-12-21T19:38:49.083Z,96368.00
2023-12-21T19:41:15.699Z,96362.09
2023-12-21T19:43:42.189Z,96371.13
2023-12-21T19:46:08.728Z,96369.47
2023-12-21T19:48:37.181Z,96376.88
2023-12-21T19:51:03.755Z,96390.44
2023-12-21T19:53:31.696Z,96405.34
2023-12-21T19:55:58.461Z,96398.78
2023-12-21T19:58:25.650Z,96400.78
2023-12-21T20:00:53.394Z,96428.38
2023-12-21T20:03:20.035Z,96428.06
2023-12-21T20:05:46.560Z,96397.91
2023-12-21T20:08:13.271Z,96397.91
2023-12-21T20:10:39.979Z,96404.28
2023-12-21T20:13:10.030Z,96391.81
2023-12-21T20:15:36.629Z,96396.53
2023-12-21T20:18:05.170Z,96396.78
2023-12-21T20:20:34.822Z,96391.13
2023-12-21T20:23:01.755Z,96385.34
2023-12-21T20:25:28.516Z,96387.13
2023-12-21T20:27:56.322Z,96399.56
2023-12-21T20:30:23.224Z,96413.69
2023-12-21T20:32:53.670Z,96416.56
2023-12-21T20:35:20.223Z,96413.97
2023-12-21T20:37:47.422Z,96399.94
2023-12-21T20:40:15.097Z,96406.41
2023-12-21T20:42:41.706Z,96405.00
2023-12-21T20:45:08.360Z,96413.31
2023-12-21T20:47:34.843Z,96405.75
2023-12-21T20:50:01.581Z,96414.25
2023-12-21T20:52:28.189Z,96425.25
2023-12-21T20:54:56.112Z,96415.69
2023-12-21T20:57:22.696Z,96412.00
2023-12-21T20:59:49.053Z,96418.53
2023-12-21T21:02:15.776Z,96419.72
2023-12-21T21:04:42.610Z,96422.91
2023-12-21T21:07:10.275Z,96412.09
2023-12-21T21:09:36.907Z,96404.31
2023-12-21T21:12:03.378Z,96410.03
2023-12-21T21:14:29.873Z,96403.28
2023-12-21T21:16:56.354Z,96395.56
2023-12-21T21:19:22.851Z,96398.28
2023-12-21T21:21:49.580Z,96405.59
2023-12-21T21:24:16.115Z,96392.25
2023-12-21T21:26:43.252Z,96385.59
2023-12-21T21:29:09.693Z,96388.19
2023-12-21T21:31:36.151Z,96387.88
2023-12-21T21:34:02.802Z,96376.81
2023-12-21T21:36:32.500Z,96382.56
2023-12-21T21:38:59.403Z,96372.91
2023-12-21T21:41:25.816Z,96358.44
2023-12-21T21:43:52.430Z,96349.50
2023-12-21T21:46:19.014Z,96353.31
2023-12-21T21:48:45.726Z,96360.06
2023-12-21T21:51:15.248Z,96367.03
2023-12-21T21:53:45.995Z,96354.59
2023-12-21T21:56:12.743Z,96346.78
2023-12-21T21:58:39.283Z,96360.41
2023-12-21T22:01:06.815Z,96355.78
2023-12-21T22:03:34.974Z,96339.59
2023-12-21T22:06:02.096Z,96349.69
2023-12-21T22:08:28.985Z,96356.66
2023-12-21T22:10:55.778Z,96356.53
2023-12-21T22:13:22.424Z,96368.22
2023-12-21T22:15:55.325Z,96345.75
2023-12-21T22:18:21.941Z,96334.09
2023-12-21T22:20:48.847Z,96332.19
2023-12-21T22:23:15.450Z,96328.22
2023-12-21T22:25:42.381Z,96320.41
2023-12-21T22:28:09.190Z,96317.81
2023-12-21T22:30:35.697Z,96325.72
2023-12-21T22:33:05.303Z,96315.97
2023-12-21T22:35:32.183Z,96332.97
2023-12-21T22:37:59.046Z,96323.09
2023-12-21T22:40:25.896Z,96318.50
2023-12-21T22:42:52.966Z,96323.38
2023-12-21T22:45:20.058Z,96304.47
2023-12-21T22:47:47.039Z,96303.19
2023-12-21T22:50:14.136Z,96285.63
2023-12-21T22:52:40.751Z,96280.31
2023-12-21T22:55:07.551Z,96279.69
2023-12-21T22:57:35.010Z,96267.44
2023-12-21T23:00:02.398Z,96267.22
2023-12-21T23:02:29.213Z,96260.75
2023-12-21T23:04:58.435Z,96253.44
2023-12-21T23:07:29.409Z,96246.94
2023-12-21T23:09:56.357Z,96267.72
2023-12-21T23:12:23.272Z,96271.03
2023-12-21T23:14:49.968Z,96285.69
2023-12-21T23:17:16.766Z,96286.56
2023-12-21T23:19:43.302Z,96276.16
2023-12-21T23:22:09.776Z,96260.25
2023-12-21T23:24:38.134Z,96258.84
2023-12-21T23:27:07.805Z,96262.25
2023-12-21T23:29:34.396Z,96259.78
2023-12-21T23:32:01.178Z,96261.94
2023-12-21T23:34:27.688Z,96247.66
2023-12-21T23:36:55.846Z,96251.47
2023-12-21T23:39:22.448Z,96247.34
2023-12-21T23:41:48.906Z,96237.09
2023-12-21T23:44:15.361Z,96220.16
2023-12-21T23:46:41.764Z,96222.84
2023-12-21T23:49:08.249Z,96227.72
2023-12-21T23:51:37.167Z,96211.22
2023-12-21T23:54:03.855Z,96204.88
2023-12-21T23:56:30.303Z,96201.00
2023-12-21T23:58:56.764Z,96205.81
